createdAt,value
2018-11-27T00:02:09.312Z,16.80
2018-11-27T00:04:34.441Z,17.13
2018-11-27T00:06:59.580Z,16.20
2018-11-27T00:09:24.734Z,15.83
2018-11-27T00:11:49.792Z,15.13
2018-11-27T00:14:14.852Z,15.70
2018-11-27T00:16:39.993Z,15.37
2018-11-27T00:19:05.069Z,14.67
2018-11-27T00:21:30.227Z,15.43
2018-11-27T00:23:55.292Z,14.93
2018-11-27T00:26:20.342Z,15.57
2018-11-27T00:28:45.408Z,14.87
2018-11-27T00:31:10.459Z,15.43
2018-11-27T00:33:35.657Z,13.93
2018-11-27T00:36:00.701Z,14.90
2018-11-27T00:38:25.986Z,14.53
2018-11-27T00:40:51.110Z,14.17
2018-11-27T00:43:16.168Z,14.50
2018-11-27T00:45:54.311Z,13.80
2018-11-27T00:48:38.315Z,13.57
2018-11-27T00:51:22.470Z,13.27
2018-11-27T00:53:47.516Z,13.73
2018-11-27T00:56:12.571Z,13.40
2018-11-27T01:01:13.645Z,12.87
2018-11-27T01:03:38.750Z,13.07
2018-11-27T01:06:03.807Z,13.03
2018-11-27T01:08:29.019Z,13.43
2018-11-27T01:10:54.087Z,13.10
2018-11-27T01:13:19.214Z,12.70
2018-11-27T01:18:21.287Z,13.27
2018-11-27T01:20:46.389Z,13.57
2018-11-27T01:23:11.451Z,13.57
2018-11-27T01:25:36.481Z,14.17
2018-11-27T01:28:01.570Z,11.93
2018-11-27T01:30:26.647Z,12.77
2018-11-27T01:32:51.918Z,13.37
2018-11-27T01:35:17.768Z,13.33
2018-11-27T01:37:42.977Z,13.17
2018-11-27T01:40:30.754Z,13.10
2018-11-27T01:42:56.754Z,13.37
2018-11-27T01:45:22.285Z,12.57
2018-11-27T01:47:47.465Z,12.80
2018-11-27T01:50:13.546Z,13.20
2018-11-27T01:52:38.633Z,11.90
2018-11-27T01:55:03.734Z,12.80
2018-11-27T01:57:28.802Z,13.67
2018-11-27T01:59:53.870Z,12.30
2018-11-27T02:02:18.974Z,12.10
2018-11-27T02:04:44.048Z,12.60
2018-11-27T02:07:09.108Z,13.53
2018-11-27T02:09:34.186Z,12.83
2018-11-27T02:11:59.249Z,13.57
2018-11-27T02:14:24.304Z,12.67
2018-11-27T02:16:49.365Z,13.07
2018-11-27T02:19:14.451Z,12.83
2018-11-27T02:21:39.505Z,13.07
2018-11-27T02:24:04.573Z,13.50
2018-11-27T02:26:29.686Z,13.67
2018-11-27T02:28:54.768Z,13.10
2018-11-27T02:31:19.877Z,13.23
2018-11-27T02:33:44.944Z,12.80
2018-11-27T02:36:09.993Z,14.23
2018-11-27T02:38:35.227Z,12.60
2018-11-27T02:41:00.278Z,12.77
2018-11-27T02:43:25.353Z,13.07
2018-11-27T02:45:50.409Z,13.27
2018-11-27T02:48:26.909Z,12.67
2018-11-27T02:50:51.933Z,12.73
2018-11-27T02:53:16.960Z,12.93
2018-11-27T02:55:42.019Z,13.17
2018-11-27T02:58:07.831Z,13.70
2018-11-27T03:00:32.885Z,14.10
2018-11-27T03:02:57.961Z,13.97
2018-11-27T03:05:42.099Z,13.83
2018-11-27T03:08:07.286Z,14.23
2018-11-27T03:10:32.347Z,13.53
2018-11-27T03:13:16.404Z,13.67
2018-11-27T03:18:17.484Z,14.17
2018-11-27T03:20:42.515Z,14.83
2018-11-27T03:23:07.720Z,14.43
2018-11-27T03:25:32.768Z,14.70
2018-11-27T03:27:57.836Z,15.37
2018-11-27T03:30:24.059Z,15.43
2018-11-27T03:32:49.147Z,14.87
2018-11-27T03:35:15.091Z,15.30
2018-11-27T03:37:40.397Z,15.17
2018-11-27T03:40:06.436Z,16.13
2018-11-27T03:42:31.514Z,15.87
2018-11-27T03:44:56.808Z,15.60
2018-11-27T03:47:21.940Z,16.27
2018-11-27T03:49:46.997Z,15.27
2018-11-27T03:52:12.103Z,16.57
2018-11-27T03:54:37.183Z,16.13
2018-11-27T03:57:02.264Z,15.17
2018-11-27T03:59:27.323Z,15.37
2018-11-27T04:01:52.404Z,16.33
2018-11-27T04:04:17.487Z,15.90
2018-11-27T04:06:42.562Z,15.33
2018-11-27T04:09:09.959Z,15.73
2018-11-27T04:11:35.047Z,15.77
2018-11-27T04:14:00.144Z,16.00
2018-11-27T04:16:25.261Z,15.27
2018-11-27T04:18:50.316Z,15.73
2018-11-27T04:21:15.428Z,16.23
2018-11-27T04:23:40.476Z,16.07
2018-11-27T04:26:05.609Z,15.97
2018-11-27T04:28:32.292Z,16.60
2018-11-27T04:31:16.344Z,15.23
2018-11-27T04:33:41.406Z,16.77
2018-11-27T04:36:07.223Z,15.37
2018-11-27T04:41:26.548Z,15.17
2018-11-27T04:43:51.651Z,15.57
2018-11-27T04:46:16.764Z,15.50
2018-11-27T04:48:41.843Z,16.40
2018-11-27T04:51:07.012Z,15.53
2018-11-27T04:53:32.116Z,15.30
2018-11-27T04:55:57.160Z,16.10
2018-11-27T04:58:22.262Z,15.00
2018-11-27T05:01:06.324Z,16.73
2018-11-27T05:03:31.457Z,15.03
2018-11-27T05:05:56.567Z,14.93
2018-11-27T05:08:21.642Z,15.50
2018-11-27T05:10:46.762Z,16.00
2018-11-27T05:13:11.871Z,15.90
2018-11-27T05:15:36.986Z,16.23
2018-11-27T05:18:02.078Z,16.47
2018-11-27T05:20:27.199Z,15.63
2018-11-27T05:22:52.259Z,15.90
2018-11-27T05:25:18.422Z,16.60
2018-11-27T05:28:03.973Z,16.07
2018-11-27T05:30:28.624Z,16.07
2018-11-27T05:32:53.731Z,16.17
2018-11-27T05:35:38.326Z,16.47
2018-11-27T05:38:03.882Z,15.57
2018-11-27T05:40:28.950Z,16.83
2018-11-27T05:43:13.764Z,15.70
2018-11-27T05:45:38.843Z,16.00
2018-11-27T05:48:03.896Z,16.27
2018-11-27T05:50:28.982Z,15.63
2018-11-27T05:52:54.094Z,15.40
2018-11-27T05:55:19.353Z,15.77
2018-11-27T05:57:45.207Z,16.73
2018-11-27T06:00:29.893Z,16.57
2018-11-27T06:03:06.851Z,16.33
2018-11-27T06:05:31.991Z,16.03
2018-11-27T06:07:57.081Z,16.47
2018-11-27T06:10:25.985Z,16.53
2018-11-27T06:12:48.026Z,15.87
2018-11-27T06:15:17.085Z,15.70
2018-11-27T06:20:56.429Z,16.13
2018-11-27T06:23:21.645Z,17.30
2018-11-27T06:25:46.734Z,16.90
2018-11-27T06:28:11.850Z,16.67
2018-11-27T06:30:37.214Z,16.50
2018-11-27T06:33:02.367Z,16.90
2018-11-27T06:35:28.882Z,16.27
2018-11-27T06:37:54.076Z,16.37
2018-11-27T06:40:30.821Z,17.17
2018-11-27T06:42:56.077Z,18.03
2018-11-27T06:45:21.830Z,17.33
2018-11-27T06:47:48.022Z,17.93
2018-11-27T06:50:32.224Z,16.37
2018-11-27T06:55:34.640Z,17.33
2018-11-27T06:57:59.721Z,17.13
2018-11-27T07:00:26.415Z,17.60
2018-11-27T07:02:51.603Z,17.33
2018-11-27T07:05:16.878Z,16.23
2018-11-27T07:07:42.155Z,17.07
2018-11-27T07:10:11.507Z,16.57
2018-11-27T07:12:36.617Z,16.10
2018-11-27T07:15:01.690Z,16.70
2018-11-27T07:17:26.873Z,16.33
2018-11-27T07:19:51.971Z,17.00
2018-11-27T07:22:17.112Z,17.33
2018-11-27T07:24:42.264Z,16.43
2018-11-27T07:27:07.463Z,17.60
2018-11-27T07:29:32.569Z,17.43
2018-11-27T07:31:57.696Z,16.87
2018-11-27T07:34:22.895Z,17.07
2018-11-27T07:36:48.063Z,17.13
2018-11-27T07:39:13.252Z,16.13
2018-11-27T07:41:38.401Z,16.27
2018-11-27T07:44:03.580Z,16.40
2018-11-27T07:46:28.750Z,17.47
2018-11-27T07:48:53.811Z,16.87
2018-11-27T07:51:18.862Z,17.50
2018-11-27T07:53:44.002Z,16.43
2018-11-27T07:56:09.070Z,16.23
2018-11-27T07:58:40.023Z,16.77
2018-11-27T08:01:05.305Z,16.37
2018-11-27T08:03:30.356Z,16.80
2018-11-27T08:05:55.477Z,16.00
2018-11-27T08:08:20.780Z,16.23
2018-11-27T08:10:47.149Z,17.30
2018-11-27T08:13:12.549Z,17.53
2018-11-27T08:15:37.799Z,17.10
2018-11-27T08:20:59.932Z,16.97
2018-11-27T08:23:25.041Z,17.00
2018-11-27T08:25:50.122Z,17.97
2018-11-27T08:28:15.259Z,16.83
2018-11-27T08:30:40.341Z,16.77
2018-11-27T08:33:05.589Z,17.73
2018-11-27T08:35:31.130Z,16.57
2018-11-27T08:37:57.497Z,16.33
2018-11-27T08:40:23.664Z,17.07
2018-11-27T08:42:48.983Z,15.13
2018-11-27T08:45:33.176Z,15.60
2018-11-27T08:47:58.290Z,15.33
2018-11-27T08:50:42.392Z,16.63
2018-11-27T08:53:08.565Z,16.07
2018-11-27T08:55:53.724Z,15.87
2018-11-27T08:58:37.851Z,16.20
2018-11-27T09:01:03.013Z,16.77
2018-11-27T09:03:28.292Z,17.07
2018-11-27T09:05:53.520Z,17.60
2018-11-27T09:08:18.687Z,15.47
2018-11-27T09:10:43.785Z,17.43
2018-11-27T09:13:09.030Z,15.57
2018-11-27T09:15:34.249Z,15.97
2018-11-27T09:18:19.180Z,15.80
2018-11-27T09:20:44.340Z,16.37
2018-11-27T09:23:09.573Z,16.63
2018-11-27T09:25:34.812Z,16.57
2018-11-27T09:27:59.937Z,16.80
2018-11-27T09:30:26.546Z,16.40
2018-11-27T09:32:51.843Z,16.93
2018-11-27T09:35:17.078Z,17.27
2018-11-27T09:37:42.365Z,17.27
2018-11-27T09:40:28.563Z,15.20
2018-11-27T09:42:53.787Z,14.67
2018-11-27T09:45:38.558Z,16.10
2018-11-27T09:48:03.778Z,14.37
2018-11-27T09:50:29.010Z,15.17
2018-11-27T09:52:54.394Z,14.00
2018-11-27T09:55:38.509Z,13.17
2018-11-27T09:58:23.468Z,14.30
2018-11-27T10:00:48.671Z,12.00
2018-11-27T10:03:15.436Z,12.83
2018-11-27T10:05:40.767Z,12.47
2018-11-27T10:08:06.827Z,12.80
2018-11-27T10:10:31.942Z,12.60
2018-11-27T10:12:57.267Z,11.83
2018-11-27T10:15:23.792Z,12.13
2018-11-27T10:18:11.249Z,12.27
2018-11-27T10:21:14.057Z,11.93
2018-11-27T10:23:39.173Z,11.03
2018-11-27T10:28:41.445Z,11.33
2018-11-27T10:31:06.624Z,11.03
2018-11-27T10:33:31.893Z,10.80
2018-11-27T10:35:57.132Z,11.37
2018-11-27T10:38:22.388Z,10.80
2018-11-27T10:40:48.083Z,10.93
2018-11-27T10:43:13.183Z,11.90
2018-11-27T10:45:38.256Z,11.43
2018-11-27T10:48:03.356Z,10.50
2018-11-27T10:50:28.654Z,11.00
2018-11-27T10:52:55.040Z,10.87
2018-11-27T10:55:21.147Z,10.83
2018-11-27T10:57:46.490Z,10.97
2018-11-27T11:00:49.415Z,10.90
2018-11-27T11:03:33.361Z,11.17
2018-11-27T11:05:58.697Z,10.77
2018-11-27T11:08:24.269Z,11.20
2018-11-27T11:11:02.289Z,11.43
2018-11-27T11:13:27.490Z,11.50
2018-11-27T11:15:52.672Z,10.80
2018-11-27T11:18:17.795Z,11.40
2018-11-27T11:21:02.751Z,11.60
2018-11-27T11:23:28.062Z,11.97
2018-11-27T11:25:53.249Z,11.47
2018-11-27T11:28:20.296Z,11.73
2018-11-27T11:30:45.518Z,10.73
2018-11-27T11:33:10.745Z,11.33
2018-11-27T11:35:36.119Z,10.90
2018-11-27T11:38:01.360Z,10.73
2018-11-27T11:40:26.770Z,11.77
2018-11-27T11:42:56.360Z,11.13
2018-11-27T11:45:21.549Z,12.23
2018-11-27T11:47:46.877Z,11.70
2018-11-27T11:50:25.262Z,11.73
2018-11-27T11:52:54.706Z,11.23
2018-11-27T11:55:20.772Z,11.93
2018-11-27T11:57:46.333Z,11.20
2018-11-27T12:00:13.187Z,10.70
2018-11-27T12:02:38.379Z,10.70
2018-11-27T12:05:03.597Z,10.83
2018-11-27T12:07:28.895Z,10.40
2018-11-27T12:09:54.154Z,9.90
2018-11-27T12:12:19.358Z,9.70
2018-11-27T12:14:44.467Z,9.43
2018-11-27T12:17:09.774Z,10.23
2018-11-27T12:19:34.993Z,9.90
2018-11-27T12:22:00.220Z,9.00
2018-11-27T12:24:25.300Z,9.57
2018-11-27T12:26:50.418Z,10.07
2018-11-27T12:29:15.567Z,9.20
2018-11-27T12:31:40.767Z,9.47
2018-11-27T12:34:06.176Z,9.77
2018-11-27T12:36:31.295Z,10.07
2018-11-27T12:38:56.441Z,9.57
2018-11-27T12:41:21.709Z,9.83
2018-11-27T12:43:46.844Z,10.00
2018-11-27T12:46:12.105Z,8.90
2018-11-27T12:48:37.382Z,9.87
2018-11-27T12:51:02.645Z,10.27
2018-11-27T12:53:27.802Z,9.67
2018-11-27T12:55:53.120Z,8.93
2018-11-27T12:58:18.237Z,9.73
2018-11-27T13:00:43.395Z,9.17
2018-11-27T13:03:08.714Z,9.30
2018-11-27T13:05:43.624Z,9.17
2018-11-27T13:08:27.811Z,9.37
2018-11-27T13:10:53.214Z,9.57
2018-11-27T13:13:18.482Z,8.37
2018-11-27T13:15:44.109Z,9.13
2018-11-27T13:18:10.374Z,8.83
2018-11-27T13:20:35.707Z,9.70
2018-11-27T13:23:00.913Z,9.70
2018-11-27T13:25:26.253Z,9.60
2018-11-27T13:31:07.437Z,10.30
2018-11-27T13:34:10.551Z,9.50
2018-11-27T13:36:35.884Z,9.23
2018-11-27T13:39:39.312Z,10.00
2018-11-27T13:44:41.760Z,10.67
2018-11-27T13:47:07.189Z,10.70
2018-11-27T13:49:32.484Z,10.50
2018-11-27T13:51:57.755Z,10.20
2018-11-27T13:54:23.047Z,10.40
2018-11-27T13:56:48.129Z,11.00
2018-11-27T13:59:13.341Z,10.43
2018-11-27T14:01:38.436Z,11.03
2018-11-27T14:04:03.615Z,10.80
2018-11-27T14:06:28.869Z,11.87
2018-11-27T14:08:53.994Z,11.40
2018-11-27T14:11:19.342Z,11.27
2018-11-27T14:13:44.497Z,10.20
2018-11-27T14:16:09.744Z,10.93
2018-11-27T14:18:34.951Z,10.83
2018-11-27T14:21:00.360Z,10.83
2018-11-27T14:23:25.672Z,10.97
2018-11-27T14:25:50.755Z,11.57
2018-11-27T14:28:15.950Z,13.23
2018-11-27T14:30:41.082Z,11.20
2018-11-27T14:33:18.315Z,11.90
2018-11-27T14:35:43.391Z,11.80
2018-11-27T14:38:08.593Z,11.80
2018-11-27T14:40:33.689Z,12.43
2018-11-27T14:42:58.868Z,11.10
2018-11-27T14:45:43.573Z,12.27
2018-11-27T14:48:09.026Z,11.43
2018-11-27T14:50:34.245Z,12.17
2018-11-27T14:52:59.533Z,13.07
2018-11-27T14:55:34.654Z,12.23
2018-11-27T14:57:59.866Z,12.67
2018-11-27T15:00:25.899Z,12.77
2018-11-27T15:02:51.116Z,12.37
2018-11-27T15:05:20.682Z,12.30
2018-11-27T15:07:45.875Z,12.53
2018-11-27T15:10:14.655Z,13.20
2018-11-27T15:12:39.869Z,14.30
2018-11-27T15:15:05.354Z,12.77
2018-11-27T15:17:30.479Z,14.30
2018-11-27T15:19:55.632Z,14.27
2018-11-27T15:22:20.851Z,14.60
2018-11-27T15:24:45.930Z,14.10
2018-11-27T15:27:11.095Z,14.00
2018-11-27T15:29:36.217Z,13.00
2018-11-27T15:32:01.308Z,13.33
2018-11-27T15:34:26.417Z,13.03
2018-11-27T15:36:51.493Z,13.00
2018-11-27T15:39:16.623Z,13.83
2018-11-27T15:41:41.815Z,12.97
2018-11-27T15:44:07.352Z,12.80
2018-11-27T15:46:32.558Z,13.17
2018-11-27T15:48:57.826Z,13.83
2018-11-27T15:51:22.960Z,12.90
2018-11-27T15:53:48.204Z,13.00
2018-11-27T15:56:13.498Z,13.23
2018-11-27T15:58:38.723Z,13.00
2018-11-27T16:01:03.912Z,13.50
2018-11-27T16:03:29.062Z,13.03
2018-11-27T16:05:54.317Z,13.97
2018-11-27T16:08:19.544Z,13.97
2018-11-27T16:10:44.762Z,13.37
2018-11-27T16:13:10.095Z,13.47
2018-11-27T16:15:45.703Z,12.57
2018-11-27T16:18:10.790Z,13.93
2018-11-27T16:20:35.866Z,13.67
2018-11-27T16:23:01.035Z,13.03
2018-11-27T16:25:26.520Z,13.73
2018-11-27T16:27:51.793Z,13.20
2018-11-27T16:30:35.973Z,13.20
2018-11-27T16:33:01.200Z,13.10
2018-11-27T16:35:26.521Z,12.93
2018-11-27T16:37:56.025Z,13.73
2018-11-27T16:40:40.326Z,13.23
2018-11-27T16:45:42.379Z,13.40
2018-11-27T16:48:07.741Z,13.70
2018-11-27T16:50:32.937Z,13.43
2018-11-27T16:52:58.109Z,13.10
2018-11-27T16:55:42.267Z,12.67
2018-11-27T16:58:07.467Z,12.93
2018-11-27T17:00:51.744Z,13.07
2018-11-27T17:03:36.642Z,11.90
2018-11-27T17:06:01.940Z,13.53
2018-11-27T17:08:27.042Z,13.57
2018-11-27T17:10:52.409Z,14.50
2018-11-27T17:13:17.619Z,14.20
2018-11-27T17:15:42.925Z,14.50
2018-11-27T17:18:09.011Z,14.20
2018-11-27T17:20:38.292Z,15.53
2018-11-27T17:23:04.548Z,16.00
2018-11-27T17:25:29.828Z,16.27
2018-11-27T17:27:56.242Z,17.73
2018-11-27T17:30:59.341Z,17.17
2018-11-27T17:34:02.405Z,16.77
2018-11-27T17:36:27.576Z,18.87
2018-11-27T17:38:52.756Z,17.03
2018-11-27T17:41:18.097Z,16.90
2018-11-27T17:43:43.481Z,17.87
2018-11-27T17:46:09.189Z,17.40
2018-11-27T17:48:34.391Z,17.67
2018-11-27T17:50:59.523Z,19.53
2018-11-27T17:53:24.629Z,18.50
2018-11-27T17:55:49.841Z,16.93
2018-11-27T17:58:14.959Z,17.33
2018-11-27T18:00:40.267Z,17.77
2018-11-27T18:03:07.556Z,16.43
2018-11-27T18:05:32.870Z,16.50
2018-11-27T18:07:58.153Z,16.27
2018-11-27T18:10:23.482Z,16.77
2018-11-27T18:12:48.693Z,16.63
2018-11-27T18:15:17.974Z,16.47
2018-11-27T18:17:43.240Z,16.27
2018-11-27T18:20:09.934Z,16.33
2018-11-27T18:22:35.223Z,15.90
2018-11-27T18:25:00.382Z,14.00
2018-11-27T18:27:25.523Z,14.63
2018-11-27T18:29:50.825Z,15.23
2018-11-27T18:32:15.972Z,14.47
2018-11-27T18:38:12.814Z,14.67
2018-11-27T18:46:56.606Z,14.17
2018-11-27T18:50:01.398Z,15.03
2018-11-27T19:05:43.589Z,14.70
2018-11-27T19:08:40.980Z,14.90
2018-11-27T19:11:10.468Z,14.63
2018-11-27T19:17:25.403Z,14.13
2018-11-27T19:23:25.270Z,13.87
2018-11-27T19:32:24.960Z,13.27
2018-11-27T19:35:25.268Z,14.10
2018-11-27T19:38:20.500Z,15.13
2018-11-27T19:41:29.822Z,14.50
2018-11-27T19:44:32.172Z,14.20
2018-11-27T19:47:26.102Z,14.03
2018-11-27T20:00:10.600Z,15.17
2018-11-27T20:07:03.394Z,14.27
2018-11-27T20:18:32.822Z,14.27
2018-11-27T20:21:07.474Z,14.20
2018-11-27T20:26:31.746Z,14.73
2018-11-27T20:42:00.718Z,14.63
2018-11-27T20:45:08.693Z,14.30
2018-11-27T20:51:14.027Z,14.03
2018-11-27T20:56:58.141Z,15.13
2018-11-27T21:02:48.180Z,14.53
2018-11-27T21:20:07.292Z,16.60
2018-11-27T21:26:25.368Z,16.30
2018-11-27T21:38:55.612Z,14.67
2018-11-27T21:42:00.221Z,15.77
2018-11-27T21:56:26.195Z,14.70
2018-11-27T21:59:38.713Z,14.80
2018-11-27T22:02:31.970Z,14.10
2018-11-27T22:08:25.036Z,13.63
2018-11-27T22:11:23.140Z,13.83
2018-11-27T22:20:24.628Z,12.57
2018-11-27T22:25:27.873Z,12.13
2018-11-27T22:27:53.146Z,12.77
2018-11-27T22:30:19.652Z,12.77
2018-11-27T22:32:46.256Z,12.57
2018-11-27T22:35:11.696Z,12.87
2018-11-27T22:37:36.990Z,13.50
2018-11-27T22:40:02.132Z,12.77
2018-11-27T22:42:27.231Z,12.40
2018-11-27T22:44:52.458Z,12.47
2018-11-27T22:47:17.625Z,11.83
2018-11-27T22:49:42.705Z,11.83
2018-11-27T22:52:08.007Z,11.80
2018-11-27T22:54:33.078Z,11.70
2018-11-27T22:56:58.280Z,12.40
2018-11-27T22:59:23.413Z,12.00
2018-11-27T23:01:48.614Z,12.10
2018-11-27T23:04:13.931Z,12.20
2018-11-27T23:06:39.140Z,11.80
2018-11-27T23:09:14.728Z,12.17
2018-11-27T23:11:39.987Z,12.10
2018-11-27T23:14:05.214Z,12.83
2018-11-27T23:16:30.552Z,11.50
2018-11-27T23:18:55.650Z,12.67
2018-11-27T23:21:20.968Z,12.70
2018-11-27T23:23:46.130Z,12.33
2018-11-27T23:26:11.211Z,13.00
2018-11-27T23:28:36.407Z,13.10
2018-11-27T23:31:01.463Z,12.57
2018-11-27T23:33:26.584Z,12.40
2018-11-27T23:35:51.690Z,11.23
2018-11-27T23:38:16.959Z,12.17
2018-11-27T23:40:42.029Z,11.27
2018-11-27T23:43:07.267Z,11.50
2018-11-27T23:45:32.577Z,11.10
2018-11-27T23:47:57.644Z,11.77
2018-11-27T23:50:23.364Z,10.80
2018-11-27T23:52:48.904Z,11.70
2018-11-27T23:55:14.887Z,11.50
2018-11-27T23:57:40.551Z,11.57
